Tuscumbia, Alabama
Current Conditions -  °F | °C
As of 11:53 PM on Tuesday 27 Jan 2015 (Local Time) from KMSL Reporting Station
Clear Clear  
Wind Chill: 33°   Ceiling: Unl
Heat Index: 37°   Visibility: 10mi
Dew Point: 26°   Wind: 5mph
Humidity: 65%   Direction: 30°NNE
Pressure: 30.23"   Gusts: NA
Location:  34.73°N, 87.7°W
Report Text: KMSL 280553Z AUTO 03004KT 10SM CLR 03/M03 A3023 RMK AO2 SLP237 T00281033 10089 20028 401220000 51007
Loading
Personal Weather Stations






























Interactive Weather Map New forecast layout! Learn more

10-Day Weather Forecast

Advertisements
Track Severe Weather on mobile